createdAt,value
2023-04-17T06:20:54.919Z,1018.50
2023-04-17T06:30:55.066Z,1018.67
2023-04-17T06:40:54.975Z,1018.65
2023-04-17T06:50:54.974Z,1018.72
2023-04-17T07:00:55.068Z,1018.80
2023-04-17T07:10:54.864Z,1018.80
2023-04-17T07:20:54.987Z,1018.81
2023-04-17T07:30:55.114Z,1018.90
2023-04-17T07:40:55.090Z,1018.85
2023-04-17T07:50:55.069Z,1018.85
2023-04-17T08:00:55.117Z,1018.96
2023-04-17T08:10:55.064Z,1019.02
2023-04-17T08:20:55.006Z,1019.06
2023-04-17T08:30:55.195Z,1019.12
2023-04-17T08:40:55.264Z,1019.17
2023-04-17T08:50:55.430Z,1019.11
2023-04-17T09:00:55.440Z,1019.09
2023-04-17T09:10:55.530Z,1019.08
2023-04-17T09:20:55.407Z,1019.13
2023-04-17T09:30:55.510Z,1019.11
2023-04-17T09:40:55.286Z,1019.11
2023-04-17T09:50:55.503Z,1019.27
2023-04-17T10:00:55.518Z,1019.13
2023-04-17T10:10:55.481Z,1019.05
2023-04-17T10:20:55.297Z,1019.04
2023-04-17T10:30:55.620Z,1019.02
2023-04-17T10:40:55.552Z,1018.96
2023-04-17T10:50:55.429Z,1018.89
2023-04-17T11:00:55.719Z,1018.83
2023-04-17T11:10:55.308Z,1018.80
2023-04-17T11:20:55.480Z,1018.75
2023-04-17T11:30:55.317Z,1018.64
2023-04-17T11:40:55.413Z,1018.51
2023-04-17T11:50:56.421Z,1018.70
2023-04-17T12:00:55.388Z,1018.56
2023-04-17T12:10:55.463Z,1018.36
2023-04-17T12:20:55.617Z,1018.26
2023-04-17T12:30:55.630Z,1018.41
2023-04-17T12:40:55.709Z,1018.21
2023-04-17T12:50:55.837Z,1018.30
2023-04-17T13:00:55.832Z,1018.25
2023-04-17T13:10:55.748Z,1018.17
2023-04-17T13:20:55.717Z,1018.12
2023-04-17T13:30:55.838Z,1018.15
2023-04-17T13:40:55.930Z,1018.04
2023-04-17T13:50:55.915Z,1017.75
2023-04-17T14:00:55.777Z,1017.77
2023-04-17T14:10:55.983Z,1017.74
2023-04-17T14:20:55.813Z,1017.69
2023-04-17T14:30:55.801Z,1017.66
2023-04-17T14:40:55.925Z,1017.50
2023-04-17T14:50:56.063Z,1017.44
2023-04-17T15:00:56.032Z,1017.52
2023-04-17T15:10:56.086Z,1017.54
2023-04-17T15:20:56.096Z,1017.53
2023-04-17T15:30:56.144Z,1017.42
2023-04-17T15:40:55.926Z,1017.44
2023-04-17T15:50:56.026Z,1017.43
2023-04-17T16:00:56.077Z,1017.48
2023-04-17T16:10:55.985Z,1017.48
2023-04-17T16:20:55.986Z,1017.63
2023-04-17T16:30:56.105Z,1017.61
2023-04-17T16:40:56.094Z,1017.74
2023-04-17T16:50:56.098Z,1017.96
2023-04-17T17:00:56.160Z,1018.09
2023-04-17T17:10:55.963Z,1018.23
2023-04-17T17:20:56.225Z,1018.41
2023-04-17T17:30:55.902Z,1018.51
2023-04-17T17:40:55.995Z,1018.65
2023-04-17T17:50:56.024Z,1018.98
2023-04-17T18:00:56.273Z,1019.13
2023-04-17T18:10:56.048Z,1019.24
2023-04-17T18:20:56.141Z,1019.25
2023-04-17T18:30:56.108Z,1019.57
2023-04-17T18:40:56.107Z,1019.62
2023-04-17T18:50:56.087Z,1019.79
2023-04-17T19:00:56.211Z,1019.85
2023-04-17T19:10:56.263Z,1020.04
2023-04-17T19:20:56.118Z,1020.12
